Santa Luzia, Brazil
Current Conditions -  °F | °C
As of 8:00 AM on Thursday 23 Oct 2014 (Local Time) from SBMS Reporting Station
Scattered Clouds Scattered Clouds  
Wind Chill: 86°   Ceiling: Unl
Heat Index: 89°   Visibility: 6mi
Dew Point: 68°   Wind: 10mph
Humidity: 55%   Direction: 120°ESE
Pressure: 29.97"   Gusts: NA
Location:  5.35°S, 36.83°W
Report Text: SBMS 231100Z 12009KT 9999 SCT030 30/20 Q1015
Loading
Personal Weather Stations






























Interactive Weather Map
Tropical Storm Tracking
New forecast layout! Learn more

10-Day Weather Forecast

Advertisements
Track Severe Weather on mobile